sensor_id;sensor_type;location;lat;lon;timestamp;temperature;humidity
28552;DHT22;15752;49.560;8.708;2022-11-18T00:01:29;13.80;99.90
28552;DHT22;15752;49.560;8.708;2022-11-18T00:03:58;13.80;99.90
28552;DHT22;15752;49.560;8.708;2022-11-18T00:06:28;13.80;99.90
28552;DHT22;15752;49.560;8.708;2022-11-18T00:08:58;13.80;99.90
28552;DHT22;15752;49.560;8.708;2022-11-18T00:11:28;13.80;99.90
28552;DHT22;15752;49.560;8.708;2022-11-18T00:14:16;13.80;99.90
28552;DHT22;15752;49.560;8.708;2022-11-18T00:16:51;13.80;99.90
28552;DHT22;15752;49.560;8.708;2022-11-18T00:19:23;13.80;99.90
28552;DHT22;15752;49.560;8.708;2022-11-18T00:21:53;13.80;99.90
28552;DHT22;15752;49.560;8.708;2022-11-18T00:24:24;13.80;99.90
28552;DHT22;15752;49.560;8.708;2022-11-18T00:26:53;13.80;99.90
28552;DHT22;15752;49.560;8.708;2022-11-18T00:29:22;13.80;99.90
28552;DHT22;15752;49.560;8.708;2022-11-18T00:31:54;13.70;99.90
28552;DHT22;15752;49.560;8.708;2022-11-18T00:34:25;13.70;99.90
28552;DHT22;15752;49.560;8.708;2022-11-18T00:36:53;13.80;99.90
28552;DHT22;15752;49.560;8.708;2022-11-18T00:39:23;13.80;99.90
28552;DHT22;15752;49.560;8.708;2022-11-18T00:41:52;13.70;99.90
28552;DHT22;15752;49.560;8.708;2022-11-18T00:44:52;13.70;99.90
28552;DHT22;15752;49.560;8.708;2022-11-18T00:47:20;13.70;99.90
28552;DHT22;15752;49.560;8.708;2022-11-18T00:49:49;13.70;99.90
28552;DHT22;15752;49.560;8.708;2022-11-18T00:52:17;13.70;99.90
28552;DHT22;15752;49.560;8.708;2022-11-18T00:54:47;13.70;99.90
28552;DHT22;15752;49.560;8.708;2022-11-18T00:57:15;13.70;99.90
28552;DHT22;15752;49.560;8.708;2022-11-18T00:59:44;13.70;99.90
28552;DHT22;15752;49.560;8.708;2022-11-18T01:02:12;13.70;99.90
28552;DHT22;15752;49.560;8.708;2022-11-18T01:04:41;13.70;99.90
28552;DHT22;15752;49.560;8.708;2022-11-18T01:07:09;13.70;99.90
28552;DHT22;15752;49.560;8.708;2022-11-18T01:09:38;13.70;99.90
28552;DHT22;15752;49.560;8.708;2022-11-18T01:12:09;13.70;99.90
28552;DHT22;15752;49.560;8.708;2022-11-18T01:14:57;13.70;99.90
28552;DHT22;15752;49.560;8.708;2022-11-18T01:17:28;13.70;99.90
28552;DHT22;15752;49.560;8.708;2022-11-18T01:19:57;13.70;99.90
28552;DHT22;15752;49.560;8.708;2022-11-18T01:22:25;13.70;99.90
28552;DHT22;15752;49.560;8.708;2022-11-18T01:24:54;13.70;99.90
28552;DHT22;15752;49.560;8.708;2022-11-18T01:27:24;13.70;99.90
28552;DHT22;15752;49.560;8.708;2022-11-18T01:29:52;13.70;99.90
28552;DHT22;15752;49.560;8.708;2022-11-18T01:32:21;13.70;99.90
28552;DHT22;15752;49.560;8.708;2022-11-18T01:34:51;13.70;99.90
28552;DHT22;15752;49.560;8.708;2022-11-18T01:37:20;13.70;99.90
28552;DHT22;15752;49.560;8.708;2022-11-18T01:39:48;13.70;99.90
28552;DHT22;15752;49.560;8.708;2022-11-18T01:42:17;13.70;99.90
28552;DHT22;15752;49.560;8.708;2022-11-18T01:45:16;13.70;99.90
28552;DHT22;15752;49.560;8.708;2022-11-18T01:47:52;13.70;99.90
28552;DHT22;15752;49.560;8.708;2022-11-18T01:50:23;13.70;99.90
28552;DHT22;15752;49.560;8.708;2022-11-18T01:52:53;13.70;99.90
28552;DHT22;15752;49.560;8.708;2022-11-18T01:55:25;13.70;99.90
28552;DHT22;15752;49.560;8.708;2022-11-18T01:58:01;13.70;99.90
28552;DHT22;15752;49.560;8.708;2022-11-18T02:00:34;13.70;99.90
28552;DHT22;15752;49.560;8.708;2022-11-18T02:03:03;13.70;99.90
28552;DHT22;15752;49.560;8.708;2022-11-18T02:05:33;13.70;99.90
28552;DHT22;15752;49.560;8.708;2022-11-18T02:08:02;13.70;99.90
28552;DHT22;15752;49.560;8.708;2022-11-18T02:10:33;13.70;99.90
28552;DHT22;15752;49.560;8.708;2022-11-18T02:13:02;13.70;99.90
28552;DHT22;15752;49.560;8.708;2022-11-18T02:15:44;13.70;99.90
28552;DHT22;15752;49.560;8.708;2022-11-18T02:18:24;13.70;99.90
28552;DHT22;15752;49.560;8.708;2022-11-18T02:21:06;13.70;99.90
28552;DHT22;15752;49.560;8.708;2022-11-18T02:24:25;13.70;99.90
28552;DHT22;15752;49.560;8.708;2022-11-18T02:27:29;13.70;99.90
28552;DHT22;15752;49.560;8.708;2022-11-18T02:30:18;13.70;99.90
28552;DHT22;15752;49.560;8.708;2022-11-18T02:32:52;13.70;99.90
28552;DHT22;15752;49.560;8.708;2022-11-18T02:35:26;13.70;99.90
28552;DHT22;15752;49.560;8.708;2022-11-18T02:37:58;13.70;99.90
28552;DHT22;15752;49.560;8.708;2022-11-18T02:40:30;13.70;99.90
28552;DHT22;15752;49.560;8.708;2022-11-18T02:43:05;13.70;99.90
28552;DHT22;15752;49.560;8.708;2022-11-18T02:45:38;13.70;99.90
28552;DHT22;15752;49.560;8.708;2022-11-18T02:48:10;13.70;99.90
28552;DHT22;15752;49.560;8.708;2022-11-18T02:50:41;13.70;99.90
28552;DHT22;15752;49.560;8.708;2022-11-18T02:53:13;13.70;99.90
28552;DHT22;15752;49.560;8.708;2022-11-18T02:55:44;13.70;99.90
28552;DHT22;15752;49.560;8.708;2022-11-18T02:58:15;13.70;99.90
28552;DHT22;15752;49.560;8.708;2022-11-18T03:00:53;13.70;99.90
28552;DHT22;15752;49.560;8.708;2022-11-18T03:03:27;13.70;99.90
28552;DHT22;15752;49.560;8.708;2022-11-18T03:06:05;13.70;99.90
28552;DHT22;15752;49.560;8.708;2022-11-18T03:08:39;13.70;99.90
28552;DHT22;15752;49.560;8.708;2022-11-18T03:11:15;13.70;99.90
28552;DHT22;15752;49.560;8.708;2022-11-18T03:13:57;13.70;99.90
28552;DHT22;15752;49.560;8.708;2022-11-18T03:16:38;13.70;99.90
28552;DHT22;15752;49.560;8.708;2022-11-18T03:19:14;13.70;99.90
28552;DHT22;15752;49.560;8.708;2022-11-18T03:21:54;13.70;99.90
28552;DHT22;15752;49.560;8.708;2022-11-18T03:24:31;13.70;99.90
28552;DHT22;15752;49.560;8.708;2022-11-18T03:27:05;13.70;99.90
28552;DHT22;15752;49.560;8.708;2022-11-18T03:29:42;13.70;99.90
28552;DHT22;15752;49.560;8.708;2022-11-18T03:32:17;13.70;99.90
28552;DHT22;15752;49.560;8.708;2022-11-18T03:34:49;13.70;99.90
28552;DHT22;15752;49.560;8.708;2022-11-18T03:37:20;13.70;99.90
28552;DHT22;15752;49.560;8.708;2022-11-18T03:39:52;13.70;99.90
28552;DHT22;15752;49.560;8.708;2022-11-18T03:42:25;13.70;99.90
28552;DHT22;15752;49.560;8.708;2022-11-18T03:45:01;13.70;99.90
28552;DHT22;15752;49.560;8.708;2022-11-18T03:47:37;13.70;99.90
28552;DHT22;15752;49.560;8.708;2022-11-18T03:50:12;13.70;99.90
28552;DHT22;15752;49.560;8.708;2022-11-18T03:52:45;13.70;99.90
28552;DHT22;15752;49.560;8.708;2022-11-18T03:55:18;13.70;99.90
28552;DHT22;15752;49.560;8.708;2022-11-18T03:57:54;13.70;99.90
28552;DHT22;15752;49.560;8.708;2022-11-18T04:00:28;13.70;99.90
28552;DHT22;15752;49.560;8.708;2022-11-18T04:03:01;13.70;99.90
28552;DHT22;15752;49.560;8.708;2022-11-18T04:05:31;13.70;99.90
28552;DHT22;15752;49.560;8.708;2022-11-18T04:08:02;13.60;99.90
28552;DHT22;15752;49.560;8.708;2022-11-18T04:10:36;13.70;99.90
28552;DHT22;15752;49.560;8.708;2022-11-18T04:13:11;13.70;99.90
28552;DHT22;15752;49.560;8.708;2022-11-18T04:15:42;13.70;99.90
28552;DHT22;15752;49.560;8.708;2022-11-18T04:18:12;13.60;99.90
28552;DHT22;15752;49.560;8.708;2022-11-18T04:20:41;13.70;99.90
28552;DHT22;15752;49.560;8.708;2022-11-18T04:23:09;13.70;99.90
28552;DHT22;15752;49.560;8.708;2022-11-18T04:25:37;13.60;99.90
28552;DHT22;15752;49.560;8.708;2022-11-18T04:28:06;13.70;99.90
28552;DHT22;15752;49.560;8.708;2022-11-18T04:30:34;13.70;99.90
28552;DHT22;15752;49.560;8.708;2022-11-18T04:33:03;13.70;99.90
28552;DHT22;15752;49.560;8.708;2022-11-18T04:35:33;13.60;99.90
28552;DHT22;15752;49.560;8.708;2022-11-18T04:38:01;13.70;99.90
28552;DHT22;15752;49.560;8.708;2022-11-18T04:40:31;13.70;99.90
28552;DHT22;15752;49.560;8.708;2022-11-18T04:42:59;13.70;99.90
28552;DHT22;15752;49.560;8.708;2022-11-18T04:45:27;13.70;99.90
28552;DHT22;15752;49.560;8.708;2022-11-18T04:47:56;13.60;99.90
28552;DHT22;15752;49.560;8.708;2022-11-18T04:50:29;13.70;99.90
28552;DHT22;15752;49.560;8.708;2022-11-18T04:52:59;13.60;99.90
28552;DHT22;15752;49.560;8.708;2022-11-18T04:55:27;13.70;99.90
28552;DHT22;15752;49.560;8.708;2022-11-18T04:57:56;13.70;99.90
28552;DHT22;15752;49.560;8.708;2022-11-18T05:00:24;13.70;99.90
28552;DHT22;15752;49.560;8.708;2022-11-18T05:02:52;13.70;99.90
28552;DHT22;15752;49.560;8.708;2022-11-18T05:05:21;13.70;99.90
28552;DHT22;15752;49.560;8.708;2022-11-18T05:07:49;13.70;99.90
28552;DHT22;15752;49.560;8.708;2022-11-18T05:10:19;13.70;99.90
28552;DHT22;15752;49.560;8.708;2022-11-18T05:12:48;13.70;99.90
28552;DHT22;15752;49.560;8.708;2022-11-18T05:15:15;13.70;99.90
28552;DHT22;15752;49.560;8.708;2022-11-18T05:17:44;13.70;99.90
28552;DHT22;15752;49.560;8.708;2022-11-18T05:20:13;13.70;99.90
28552;DHT22;15752;49.560;8.708;2022-11-18T05:22:41;13.70;99.90
28552;DHT22;15752;49.560;8.708;2022-11-18T05:25:10;13.70;99.90
28552;DHT22;15752;49.560;8.708;2022-11-18T05:27:39;13.70;99.90
28552;DHT22;15752;49.560;8.708;2022-11-18T05:30:09;13.70;99.90
28552;DHT22;15752;49.560;8.708;2022-11-18T05:32:38;13.70;99.90
28552;DHT22;15752;49.560;8.708;2022-11-18T05:35:07;13.70;99.90
28552;DHT22;15752;49.560;8.708;2022-11-18T05:37:36;13.70;99.90
28552;DHT22;15752;49.560;8.708;2022-11-18T05:40:05;13.70;99.90
28552;DHT22;15752;49.560;8.708;2022-11-18T05:42:35;13.70;99.90
28552;DHT22;15752;49.560;8.708;2022-11-18T05:45:22;13.70;99.90
28552;DHT22;15752;49.560;8.708;2022-11-18T05:47:50;13.70;99.90
28552;DHT22;15752;49.560;8.708;2022-11-18T05:50:30;13.70;99.90
28552;DHT22;15752;49.560;8.708;2022-11-18T05:53:00;13.70;99.90
28552;DHT22;15752;49.560;8.708;2022-11-18T05:55:32;13.60;99.90
28552;DHT22;15752;49.560;8.708;2022-11-18T05:58:02;13.60;99.90
28552;DHT22;15752;49.560;8.708;2022-11-18T06:00:33;13.60;99.90
28552;DHT22;15752;49.560;8.708;2022-11-18T06:03:02;13.60;99.90
28552;DHT22;15752;49.560;8.708;2022-11-18T06:05:38;13.60;99.90
28552;DHT22;15752;49.560;8.708;2022-11-18T06:08:08;13.50;99.90
28552;DHT22;15752;49.560;8.708;2022-11-18T06:10:41;13.60;99.90
28552;DHT22;15752;49.560;8.708;2022-11-18T06:13:14;13.50;99.90
28552;DHT22;15752;49.560;8.708;2022-11-18T06:15:46;13.50;99.90
28552;DHT22;15752;49.560;8.708;2022-11-18T06:18:19;13.50;99.90
28552;DHT22;15752;49.560;8.708;2022-11-18T06:20:50;13.50;99.90
28552;DHT22;15752;49.560;8.708;2022-11-18T06:23:20;13.50;99.90
28552;DHT22;15752;49.560;8.708;2022-11-18T06:25:49;13.50;99.90
28552;DHT22;15752;49.560;8.708;2022-11-18T06:28:18;13.50;99.90
28552;DHT22;15752;49.560;8.708;2022-11-18T06:30:48;13.50;99.90
28552;DHT22;15752;49.560;8.708;2022-11-18T06:33:17;13.50;99.90
28552;DHT22;15752;49.560;8.708;2022-11-18T06:35:45;13.50;99.90
28552;DHT22;15752;49.560;8.708;2022-11-18T06:38:14;13.50;99.90
28552;DHT22;15752;49.560;8.708;2022-11-18T06:40:42;13.50;99.90
28552;DHT22;15752;49.560;8.708;2022-11-18T06:43:11;13.50;99.90
28552;DHT22;15752;49.560;8.708;2022-11-18T06:45:59;13.50;99.90
28552;DHT22;15752;49.560;8.708;2022-11-18T06:48:44;13.50;99.90
28552;DHT22;15752;49.560;8.708;2022-11-18T06:51:13;13.50;99.90
28552;DHT22;15752;49.560;8.708;2022-11-18T06:53:42;13.40;99.90
28552;DHT22;15752;49.560;8.708;2022-11-18T06:56:12;13.40;99.90
28552;DHT22;15752;49.560;8.708;2022-11-18T06:58:42;13.40;99.90
28552;DHT22;15752;49.560;8.708;2022-11-18T07:01:13;13.40;99.90
28552;DHT22;15752;49.560;8.708;2022-11-18T07:03:45;13.40;99.90
28552;DHT22;15752;49.560;8.708;2022-11-18T07:06:18;13.40;99.90
28552;DHT22;15752;49.560;8.708;2022-11-18T07:08:48;13.40;99.90
28552;DHT22;15752;49.560;8.708;2022-11-18T07:11:21;13.40;99.90
28552;DHT22;15752;49.560;8.708;2022-11-18T07:13:51;13.30;99.90
28552;DHT22;15752;49.560;8.708;2022-11-18T07:16:23;13.40;99.90
28552;DHT22;15752;49.560;8.708;2022-11-18T07:18:53;13.40;99.90
28552;DHT22;15752;49.560;8.708;2022-11-18T07:21:23;13.40;99.90
28552;DHT22;15752;49.560;8.708;2022-11-18T07:23:53;13.40;99.90
28552;DHT22;15752;49.560;8.708;2022-11-18T07:26:22;13.40;99.90
28552;DHT22;15752;49.560;8.708;2022-11-18T07:28:51;13.30;99.90
28552;DHT22;15752;49.560;8.708;2022-11-18T07:31:22;13.40;99.90
28552;DHT22;15752;49.560;8.708;2022-11-18T07:33:50;13.40;99.90
28552;DHT22;15752;49.560;8.708;2022-11-18T07:36:22;13.40;99.90
28552;DHT22;15752;49.560;8.708;2022-11-18T07:38:59;13.30;99.90
28552;DHT22;15752;49.560;8.708;2022-11-18T07:41:28;13.40;99.90
28552;DHT22;15752;49.560;8.708;2022-11-18T07:43:58;13.30;99.90
28552;DHT22;15752;49.560;8.708;2022-11-18T07:46:31;13.30;99.90
28552;DHT22;15752;49.560;8.708;2022-11-18T07:49:01;13.30;99.90
28552;DHT22;15752;49.560;8.708;2022-11-18T07:51:33;13.40;99.90
28552;DHT22;15752;49.560;8.708;2022-11-18T07:54:05;13.30;99.90
28552;DHT22;15752;49.560;8.708;2022-11-18T07:56:34;13.30;99.90
28552;DHT22;15752;49.560;8.708;2022-11-18T07:59:03;13.30;99.90
28552;DHT22;15752;49.560;8.708;2022-11-18T08:01:33;13.30;99.90
28552;DHT22;15752;49.560;8.708;2022-11-18T08:04:06;13.30;99.90
28552;DHT22;15752;49.560;8.708;2022-11-18T08:06:36;13.30;99.90
28552;DHT22;15752;49.560;8.708;2022-11-18T08:09:05;13.40;99.90
28552;DHT22;15752;49.560;8.708;2022-11-18T08:11:34;13.40;99.90
28552;DHT22;15752;49.560;8.708;2022-11-18T08:14:03;13.30;99.90
28552;DHT22;15752;49.560;8.708;2022-11-18T08:16:33;13.30;99.90
28552;DHT22;15752;49.560;8.708;2022-11-18T08:19:01;13.30;99.90
28552;DHT22;15752;49.560;8.708;2022-11-18T08:21:30;13.30;99.90
28552;DHT22;15752;49.560;8.708;2022-11-18T08:23:58;13.30;99.90
28552;DHT22;15752;49.560;8.708;2022-11-18T08:26:27;13.40;99.90
28552;DHT22;15752;49.560;8.708;2022-11-18T08:28:56;13.30;99.90
28552;DHT22;15752;49.560;8.708;2022-11-18T08:31:26;13.30;99.90
28552;DHT22;15752;49.560;8.708;2022-11-18T08:33:59;13.30;99.90
28552;DHT22;15752;49.560;8.708;2022-11-18T08:36:30;13.30;99.90
28552;DHT22;15752;49.560;8.708;2022-11-18T08:39:01;13.30;99.90
28552;DHT22;15752;49.560;8.708;2022-11-18T08:41:32;13.30;99.90
28552;DHT22;15752;49.560;8.708;2022-11-18T08:44:03;13.30;99.90
28552;DHT22;15752;49.560;8.708;2022-11-18T08:46:32;13.30;99.90
28552;DHT22;15752;49.560;8.708;2022-11-18T08:49:02;13.30;99.90
28552;DHT22;15752;49.560;8.708;2022-11-18T08:51:31;13.30;99.90
28552;DHT22;15752;49.560;8.708;2022-11-18T08:53:59;13.30;99.90
28552;DHT22;15752;49.560;8.708;2022-11-18T08:56:28;13.30;99.90
28552;DHT22;15752;49.560;8.708;2022-11-18T08:58:56;13.40;99.90
28552;DHT22;15752;49.560;8.708;2022-11-18T09:01:25;13.40;99.90
28552;DHT22;15752;49.560;8.708;2022-11-18T09:03:55;13.30;99.90
28552;DHT22;15752;49.560;8.708;2022-11-18T09:06:26;13.40;99.90
28552;DHT22;15752;49.560;8.708;2022-11-18T09:08:54;13.30;99.90
28552;DHT22;15752;49.560;8.708;2022-11-18T09:11:29;13.40;99.90
28552;DHT22;15752;49.560;8.708;2022-11-18T09:13:58;13.30;99.90
28552;DHT22;15752;49.560;8.708;2022-11-18T09:16:46;13.30;99.90
28552;DHT22;15752;49.560;8.708;2022-11-18T09:19:16;13.30;99.90
28552;DHT22;15752;49.560;8.708;2022-11-18T09:22:06;13.30;99.90
28552;DHT22;15752;49.560;8.708;2022-11-18T09:24:35;13.30;99.90
28552;DHT22;15752;49.560;8.708;2022-11-18T09:27:05;13.30;99.90
28552;DHT22;15752;49.560;8.708;2022-11-18T09:29:42;13.30;99.90
28552;DHT22;15752;49.560;8.708;2022-11-18T09:32:10;13.30;99.90
28552;DHT22;15752;49.560;8.708;2022-11-18T09:34:39;13.30;99.90
28552;DHT22;15752;49.560;8.708;2022-11-18T09:37:08;13.30;99.90
28552;DHT22;15752;49.560;8.708;2022-11-18T09:39:37;13.20;99.90
28552;DHT22;15752;49.560;8.708;2022-11-18T09:42:19;13.20;99.90
28552;DHT22;15752;49.560;8.708;2022-11-18T09:45:06;13.20;99.90
28552;DHT22;15752;49.560;8.708;2022-11-18T09:47:47;13.20;99.90
28552;DHT22;15752;49.560;8.708;2022-11-18T09:53:13;13.20;99.90
28552;DHT22;15752;49.560;8.708;2022-11-18T09:55:47;13.20;99.90
28552;DHT22;15752;49.560;8.708;2022-11-18T09:58:20;13.20;99.90
28552;DHT22;15752;49.560;8.708;2022-11-18T10:00:51;13.20;99.90
28552;DHT22;15752;49.560;8.708;2022-11-18T10:03:26;13.20;99.90
28552;DHT22;15752;49.560;8.708;2022-11-18T10:05:58;13.20;99.90
28552;DHT22;15752;49.560;8.708;2022-11-18T10:08:37;13.30;99.90
28552;DHT22;15752;49.560;8.708;2022-11-18T10:11:13;13.30;99.90
28552;DHT22;15752;49.560;8.708;2022-11-18T10:13:50;13.30;99.90
28552;DHT22;15752;49.560;8.708;2022-11-18T10:16:31;13.30;99.90
28552;DHT22;15752;49.560;8.708;2022-11-18T10:19:15;13.30;99.90
28552;DHT22;15752;49.560;8.708;2022-11-18T10:21:58;13.30;99.90
28552;DHT22;15752;49.560;8.708;2022-11-18T10:24:49;13.30;99.90
28552;DHT22;15752;49.560;8.708;2022-11-18T10:27:18;13.30;99.90
28552;DHT22;15752;49.560;8.708;2022-11-18T10:29:51;13.30;99.90
28552;DHT22;15752;49.560;8.708;2022-11-18T10:32:21;13.30;99.90
28552;DHT22;15752;49.560;8.708;2022-11-18T10:34:51;13.30;99.90
28552;DHT22;15752;49.560;8.708;2022-11-18T10:37:23;13.30;99.90
28552;DHT22;15752;49.560;8.708;2022-11-18T10:40:24;13.40;99.90
28552;DHT22;15752;49.560;8.708;2022-11-18T10:42:53;13.40;99.90
28552;DHT22;15752;49.560;8.708;2022-11-18T10:45:25;13.40;99.90
28552;DHT22;15752;49.560;8.708;2022-11-18T10:48:01;13.40;99.90
28552;DHT22;15752;49.560;8.708;2022-11-18T10:50:35;13.40;99.90
28552;DHT22;15752;49.560;8.708;2022-11-18T10:55:58;13.40;99.90
28552;DHT22;15752;49.560;8.708;2022-11-18T10:58:29;13.40;99.90
28552;DHT22;15752;49.560;8.708;2022-11-18T11:01:18;13.50;99.90
28552;DHT22;15752;49.560;8.708;2022-11-18T11:03:58;13.50;99.90
28552;DHT22;15752;49.560;8.708;2022-11-18T11:06:30;13.50;99.90
28552;DHT22;15752;49.560;8.708;2022-11-18T11:09:03;13.50;99.90
28552;DHT22;15752;49.560;8.708;2022-11-18T11:11:36;13.50;99.90
28552;DHT22;15752;49.560;8.708;2022-11-18T11:14:15;13.50;99.90
28552;DHT22;15752;49.560;8.708;2022-11-18T11:16:53;13.50;99.90
28552;DHT22;15752;49.560;8.708;2022-11-18T11:19:30;13.50;99.90
28552;DHT22;15752;49.560;8.708;2022-11-18T11:22:10;13.50;99.90
28552;DHT22;15752;49.560;8.708;2022-11-18T11:24:39;13.50;99.90
28552;DHT22;15752;49.560;8.708;2022-11-18T11:30:42;13.60;99.90
28552;DHT22;15752;49.560;8.708;2022-11-18T11:33:25;13.60;99.90
28552;DHT22;15752;49.560;8.708;2022-11-18T11:39:35;13.60;99.90
28552;DHT22;15752;49.560;8.708;2022-11-18T11:42:21;13.60;99.90
28552;DHT22;15752;49.560;8.708;2022-11-18T11:45:09;13.60;99.90
28552;DHT22;15752;49.560;8.708;2022-11-18T11:48:06;13.60;99.90
28552;DHT22;15752;49.560;8.708;2022-11-18T11:50:48;13.60;99.90
28552;DHT22;15752;49.560;8.708;2022-11-18T11:56:55;13.70;99.90
28552;DHT22;15752;49.560;8.708;2022-11-18T11:59:28;13.70;99.90
28552;DHT22;15752;49.560;8.708;2022-11-18T12:02:33;13.70;99.90
28552;DHT22;15752;49.560;8.708;2022-11-18T12:05:16;13.70;99.90
28552;DHT22;15752;49.560;8.708;2022-11-18T12:07:52;13.70;99.90
28552;DHT22;15752;49.560;8.708;2022-11-18T12:10:35;13.80;99.90
28552;DHT22;15752;49.560;8.708;2022-11-18T12:13:36;13.80;99.90
28552;DHT22;15752;49.560;8.708;2022-11-18T12:16:15;13.80;99.90
28552;DHT22;15752;49.560;8.708;2022-11-18T12:18:54;13.80;99.90
28552;DHT22;15752;49.560;8.708;2022-11-18T12:21:53;13.80;99.90
28552;DHT22;15752;49.560;8.708;2022-11-18T12:24:26;13.80;99.90
28552;DHT22;15752;49.560;8.708;2022-11-18T12:27:01;13.80;99.90
28552;DHT22;15752;49.560;8.708;2022-11-18T12:29:51;13.80;99.90
28552;DHT22;15752;49.560;8.708;2022-11-18T12:32:33;13.90;99.90
28552;DHT22;15752;49.560;8.708;2022-11-18T12:35:24;13.80;99.90
28552;DHT22;15752;49.560;8.708;2022-11-18T12:37:58;13.80;99.90
28552;DHT22;15752;49.560;8.708;2022-11-18T12:40:34;13.90;99.90
28552;DHT22;15752;49.560;8.708;2022-11-18T12:46:48;13.90;99.90
28552;DHT22;15752;49.560;8.708;2022-11-18T12:52:50;13.90;99.90
28552;DHT22;15752;49.560;8.708;2022-11-18T12:55:34;13.90;99.90
28552;DHT22;15752;49.560;8.708;2022-11-18T12:58:21;13.90;99.90
28552;DHT22;15752;49.560;8.708;2022-11-18T13:00:50;13.90;99.90
28552;DHT22;15752;49.560;8.708;2022-11-18T13:03:23;13.90;99.90
28552;DHT22;15752;49.560;8.708;2022-11-18T13:06:04;13.90;99.90
28552;DHT22;15752;49.560;8.708;2022-11-18T13:08:36;13.90;99.90
28552;DHT22;15752;49.560;8.708;2022-11-18T13:11:09;14.00;99.90
28552;DHT22;15752;49.560;8.708;2022-11-18T13:14:00;13.90;99.90
28552;DHT22;15752;49.560;8.708;2022-11-18T13:16:48;13.90;99.90
28552;DHT22;15752;49.560;8.708;2022-11-18T13:19:33;14.00;99.90
28552;DHT22;15752;49.560;8.708;2022-11-18T13:22:02;13.90;99.90
28552;DHT22;15752;49.560;8.708;2022-11-18T13:24:51;13.90;99.90
28552;DHT22;15752;49.560;8.708;2022-11-18T13:27:28;13.90;99.90
28552;DHT22;15752;49.560;8.708;2022-11-18T13:30:05;13.90;99.90
28552;DHT22;15752;49.560;8.708;2022-11-18T13:32:41;13.90;99.90
28552;DHT22;15752;49.560;8.708;2022-11-18T13:35:14;13.90;99.90
28552;DHT22;15752;49.560;8.708;2022-11-18T13:37:48;13.80;99.90
28552;DHT22;15752;49.560;8.708;2022-11-18T13:40:22;13.90;99.90
28552;DHT22;15752;49.560;8.708;2022-11-18T13:42:52;13.80;99.90
28552;DHT22;15752;49.560;8.708;2022-11-18T13:45:24;13.80;99.90
28552;DHT22;15752;49.560;8.708;2022-11-18T13:47:57;13.80;99.90
28552;DHT22;15752;49.560;8.708;2022-11-18T13:50:32;13.80;99.90
28552;DHT22;15752;49.560;8.708;2022-11-18T13:53:12;13.80;99.90
28552;DHT22;15752;49.560;8.708;2022-11-18T13:55:49;13.80;99.90
28552;DHT22;15752;49.560;8.708;2022-11-18T13:58:32;13.80;99.90
28552;DHT22;15752;49.560;8.708;2022-11-18T14:01:25;13.80;99.90
28552;DHT22;15752;49.560;8.708;2022-11-18T14:03:57;13.80;99.90
28552;DHT22;15752;49.560;8.708;2022-11-18T14:06:28;13.80;99.90
28552;DHT22;15752;49.560;8.708;2022-11-18T14:09:06;13.70;99.90
28552;DHT22;15752;49.560;8.708;2022-11-18T14:11:56;13.80;99.90
28552;DHT22;15752;49.560;8.708;2022-11-18T14:14:28;13.70;99.90
28552;DHT22;15752;49.560;8.708;2022-11-18T14:17:14;13.70;99.90
28552;DHT22;15752;49.560;8.708;2022-11-18T14:19:44;13.70;99.90
28552;DHT22;15752;49.560;8.708;2022-11-18T14:22:17;13.70;99.90
28552;DHT22;15752;49.560;8.708;2022-11-18T14:24:55;13.70;99.90
28552;DHT22;15752;49.560;8.708;2022-11-18T14:27:34;13.70;99.90
28552;DHT22;15752;49.560;8.708;2022-11-18T14:30:31;13.70;99.90
28552;DHT22;15752;49.560;8.708;2022-11-18T14:33:16;13.70;99.90
28552;DHT22;15752;49.560;8.708;2022-11-18T14:35:52;13.70;99.90
28552;DHT22;15752;49.560;8.708;2022-11-18T14:38:24;13.60;99.90
28552;DHT22;15752;49.560;8.708;2022-11-18T14:41:19;13.60;99.90
28552;DHT22;15752;49.560;8.708;2022-11-18T14:44:12;13.60;99.90
28552;DHT22;15752;49.560;8.708;2022-11-18T14:46:43;13.70;99.90
28552;DHT22;15752;49.560;8.708;2022-11-18T14:49:15;13.60;99.90
28552;DHT22;15752;49.560;8.708;2022-11-18T14:51:45;13.60;99.90
28552;DHT22;15752;49.560;8.708;2022-11-18T14:54:15;13.60;99.90
28552;DHT22;15752;49.560;8.708;2022-11-18T14:56:54;13.60;99.90
28552;DHT22;15752;49.560;8.708;2022-11-18T14:59:25;13.60;99.90
28552;DHT22;15752;49.560;8.708;2022-11-18T15:01:54;13.60;99.90
28552;DHT22;15752;49.560;8.708;2022-11-18T15:04:24;13.60;99.90
28552;DHT22;15752;49.560;8.708;2022-11-18T15:06:53;13.50;99.90
28552;DHT22;15752;49.560;8.708;2022-11-18T15:09:22;13.60;99.90
28552;DHT22;15752;49.560;8.708;2022-11-18T15:11:50;13.50;99.90
28552;DHT22;15752;49.560;8.708;2022-11-18T15:14:19;13.50;99.90
28552;DHT22;15752;49.560;8.708;2022-11-18T15:16:49;13.50;99.90
28552;DHT22;15752;49.560;8.708;2022-11-18T15:19:17;13.50;99.90
28552;DHT22;15752;49.560;8.708;2022-11-18T15:21:46;13.50;99.90
28552;DHT22;15752;49.560;8.708;2022-11-18T15:24:14;13.50;99.90
28552;DHT22;15752;49.560;8.708;2022-11-18T15:26:45;13.50;99.90
28552;DHT22;15752;49.560;8.708;2022-11-18T15:29:16;13.50;99.90
28552;DHT22;15752;49.560;8.708;2022-11-18T15:31:46;13.50;99.90
28552;DHT22;15752;49.560;8.708;2022-11-18T15:34:18;13.50;99.90
28552;DHT22;15752;49.560;8.708;2022-11-18T15:36:48;13.50;99.90
28552;DHT22;15752;49.560;8.708;2022-11-18T15:39:16;13.50;99.90
28552;DHT22;15752;49.560;8.708;2022-11-18T15:41:45;13.50;99.90
28552;DHT22;15752;49.560;8.708;2022-11-18T15:44:13;13.50;99.90
28552;DHT22;15752;49.560;8.708;2022-11-18T15:46:43;13.50;99.90
28552;DHT22;15752;49.560;8.708;2022-11-18T15:49:16;13.50;99.90
28552;DHT22;15752;49.560;8.708;2022-11-18T15:51:45;13.40;99.90
28552;DHT22;15752;49.560;8.708;2022-11-18T15:54:13;13.50;99.90
28552;DHT22;15752;49.560;8.708;2022-11-18T15:56:43;13.40;99.90
28552;DHT22;15752;49.560;8.708;2022-11-18T15:59:12;13.40;99.90
28552;DHT22;15752;49.560;8.708;2022-11-18T16:01:43;13.40;99.90
28552;DHT22;15752;49.560;8.708;2022-11-18T16:04:14;13.40;99.90
28552;DHT22;15752;49.560;8.708;2022-11-18T16:06:45;13.40;99.90
28552;DHT22;15752;49.560;8.708;2022-11-18T16:09:15;13.40;99.90
28552;DHT22;15752;49.560;8.708;2022-11-18T16:11:44;13.40;99.90
28552;DHT22;15752;49.560;8.708;2022-11-18T16:14:30;13.40;99.90
28552;DHT22;15752;49.560;8.708;2022-11-18T16:16:59;13.40;99.90
28552;DHT22;15752;49.560;8.708;2022-11-18T16:19:28;13.40;99.90
28552;DHT22;15752;49.560;8.708;2022-11-18T16:21:59;13.40;99.90
28552;DHT22;15752;49.560;8.708;2022-11-18T16:24:28;13.40;99.90
28552;DHT22;15752;49.560;8.708;2022-11-18T16:26:57;13.40;99.90
28552;DHT22;15752;49.560;8.708;2022-11-18T16:29:25;13.40;99.90
28552;DHT22;15752;49.560;8.708;2022-11-18T16:31:54;13.30;99.90
28552;DHT22;15752;49.560;8.708;2022-11-18T16:34:24;13.40;99.90